createdAt,value
2022-10-19T00:02:04.841Z,3.45
2022-10-19T00:04:38.497Z,3.33
2022-10-19T00:07:05.680Z,2.67
2022-10-19T00:09:32.807Z,3.17
2022-10-19T00:12:06.312Z,3.97
2022-10-19T00:14:33.511Z,3.67
2022-10-19T00:17:07.470Z,4.15
2022-10-19T00:19:34.822Z,3.55
2022-10-19T00:22:01.935Z,4.20
2022-10-19T00:24:35.437Z,3.15
2022-10-19T00:27:02.628Z,3.00
2022-10-19T00:29:36.359Z,2.50
2022-10-19T00:32:03.566Z,2.42
2022-10-19T00:34:30.658Z,2.35
2022-10-19T00:37:04.286Z,2.35
2022-10-19T00:39:31.533Z,2.30
2022-10-19T00:42:05.456Z,2.75
2022-10-19T00:44:32.626Z,2.72
2022-10-19T00:47:03.898Z,2.38
2022-10-19T00:49:41.306Z,2.83
2022-10-19T00:52:11.779Z,2.72
2022-10-19T00:54:46.311Z,3.00
2022-10-19T00:57:14.206Z,2.75
2022-10-19T00:59:49.338Z,5.53
2022-10-19T01:02:16.527Z,3.47
2022-10-19T01:04:52.681Z,2.13
2022-10-19T01:07:20.387Z,2.80
2022-10-19T01:09:47.544Z,2.10
2022-10-19T01:12:39.404Z,2.25
2022-10-19T01:15:20.269Z,2.20
2022-10-19T01:18:12.454Z,2.17
2022-10-19T01:21:04.001Z,2.10
2022-10-19T01:24:03.355Z,1.92
2022-10-19T01:26:37.332Z,2.08
2022-10-19T01:29:18.367Z,2.75
2022-10-19T01:31:49.237Z,2.20
2022-10-19T01:34:27.427Z,1.90
2022-10-19T01:39:44.292Z,2.05
2022-10-19T01:42:19.328Z,1.70
2022-10-19T01:44:58.385Z,1.98
2022-10-19T01:47:27.671Z,2.08
2022-10-19T01:50:13.516Z,2.17
2022-10-19T01:52:41.617Z,2.22
2022-10-19T01:55:10.365Z,1.98
2022-10-19T01:57:46.554Z,2.10
2022-10-19T02:00:15.341Z,1.73
2022-10-19T02:02:50.320Z,2.20
2022-10-19T02:05:19.997Z,2.70
2022-10-19T02:07:56.396Z,1.80
2022-10-19T02:10:24.556Z,2.00
2022-10-19T02:12:59.369Z,1.80
2022-10-19T02:15:27.831Z,2.05
2022-10-19T02:17:57.310Z,2.30
2022-10-19T02:20:36.471Z,2.67
2022-10-19T02:23:11.256Z,2.67
2022-10-19T02:25:52.410Z,2.15
2022-10-19T02:30:59.335Z,2.25
2022-10-19T02:33:36.571Z,1.67
2022-10-19T02:36:04.380Z,2.20
2022-10-19T02:38:31.694Z,1.60
2022-10-19T02:41:08.351Z,6.00
2022-10-19T02:43:37.764Z,2.35
2022-10-19T02:46:22.389Z,2.00
2022-10-19T02:48:51.415Z,3.50
2022-10-19T02:51:42.392Z,2.88
2022-10-19T02:54:09.581Z,1.88
2022-10-19T02:56:43.408Z,1.70
2022-10-19T02:59:10.580Z,1.80
2022-10-19T03:01:37.674Z,2.05
2022-10-19T03:04:11.324Z,1.70
2022-10-19T03:06:38.709Z,1.83
2022-10-19T03:09:12.503Z,1.58
2022-10-19T03:11:39.807Z,1.80
2022-10-19T03:14:06.898Z,2.08
2022-10-19T03:16:45.369Z,1.70
2022-10-19T03:19:12.582Z,1.73
2022-10-19T03:21:46.375Z,1.50
2022-10-19T03:24:33.264Z,2.17
2022-10-19T03:27:07.562Z,1.88
2022-10-19T03:29:34.756Z,1.63
2022-10-19T03:32:01.876Z,1.30
2022-10-19T03:34:35.360Z,1.80
2022-10-19T03:37:02.599Z,1.50
2022-10-19T03:39:36.450Z,1.80
2022-10-19T03:42:03.729Z,1.90
2022-10-19T03:47:04.376Z,1.90
2022-10-19T03:49:38.103Z,1.80
2022-10-19T03:52:16.506Z,2.40
2022-10-19T03:54:51.228Z,1.88
2022-10-19T03:57:25.336Z,2.10
2022-10-19T03:59:52.442Z,2.03
2022-10-19T04:02:26.379Z,1.70
2022-10-19T04:04:53.483Z,2.20
2022-10-19T04:07:20.661Z,2.33
2022-10-19T04:09:54.368Z,2.17
2022-10-19T04:12:21.538Z,2.20
2022-10-19T04:14:57.703Z,1.80
2022-10-19T04:17:25.362Z,2.50
2022-10-19T04:20:06.473Z,1.80
2022-10-19T04:22:33.660Z,1.60
2022-10-19T04:25:21.468Z,2.00
2022-10-19T04:27:48.631Z,2.60
2022-10-19T04:30:15.788Z,2.75
2022-10-19T04:32:49.451Z,2.13
2022-10-19T04:35:16.702Z,1.85
2022-10-19T04:37:43.797Z,1.70
2022-10-19T04:40:18.358Z,1.80
2022-10-19T04:42:45.643Z,2.17
2022-10-19T04:45:19.529Z,2.13
2022-10-19T04:47:46.694Z,2.42
2022-10-19T04:50:13.796Z,1.75
2022-10-19T04:52:47.463Z,2.17
2022-10-19T04:55:14.682Z,6.25
2022-10-19T04:57:48.529Z,3.38
2022-10-19T05:00:15.932Z,2.00
2022-10-19T05:02:43.873Z,1.80
2022-10-19T05:05:17.466Z,1.55
2022-10-19T05:07:44.674Z,2.03
2022-10-19T05:10:18.517Z,1.90
2022-10-19T05:12:45.711Z,1.83
2022-10-19T05:15:12.811Z,1.73
2022-10-19T05:17:46.387Z,1.98
2022-10-19T05:20:13.629Z,1.90
2022-10-19T05:22:47.363Z,2.13
2022-10-19T05:25:21.198Z,2.00
2022-10-19T05:27:58.421Z,1.95
2022-10-19T05:30:25.539Z,1.80
2022-10-19T05:32:52.785Z,1.90
2022-10-19T05:35:27.368Z,1.88
2022-10-19T05:37:55.252Z,1.80
2022-10-19T05:40:29.473Z,2.33
2022-10-19T05:42:56.671Z,2.00
2022-10-19T05:45:30.559Z,2.05
2022-10-19T05:47:57.716Z,3.00
2022-10-19T05:50:24.798Z,2.80
2022-10-19T05:52:58.394Z,3.85
2022-10-19T05:55:25.586Z,2.90
2022-10-19T05:57:59.396Z,2.85
2022-10-19T06:00:26.598Z,2.42
2022-10-19T06:02:58.980Z,4.25
2022-10-19T06:08:21.963Z,3.22
2022-10-19T06:10:56.376Z,3.10
2022-10-19T06:13:23.681Z,3.35
2022-10-19T06:15:51.308Z,3.30
2022-10-19T06:18:25.416Z,3.20
2022-10-19T06:20:53.083Z,2.95
2022-10-19T06:23:26.366Z,2.90
2022-10-19T06:26:00.403Z,3.33
2022-10-19T06:28:41.430Z,3.53
2022-10-19T06:31:09.483Z,3.25
2022-10-19T06:33:37.323Z,4.15
2022-10-19T06:36:15.478Z,3.90
2022-10-19T06:38:43.026Z,2.85
2022-10-19T06:41:10.787Z,2.95
2022-10-19T06:43:44.409Z,2.55
2022-10-19T06:46:12.980Z,2.75
2022-10-19T06:48:48.542Z,2.28
2022-10-19T06:51:15.648Z,2.85
2022-10-19T06:53:52.851Z,2.65
2022-10-19T06:56:24.643Z,3.45
2022-10-19T06:58:58.376Z,3.30
2022-10-19T07:01:32.309Z,3.78
2022-10-19T07:04:06.532Z,3.33
2022-10-19T07:06:33.676Z,2.85
2022-10-19T07:09:02.606Z,4.57
2022-10-19T07:11:36.376Z,39.17
2022-10-19T07:14:03.561Z,95.35
2022-10-19T07:16:37.487Z,33.90
2022-10-19T07:19:04.669Z,5.90
2022-10-19T07:21:38.399Z,8.40
2022-10-19T07:24:05.706Z,13.45
2022-10-19T07:26:52.419Z,8.27
2022-10-19T07:29:19.654Z,12.05
2022-10-19T07:31:53.420Z,8.52
2022-10-19T07:34:23.129Z,7.15
2022-10-19T07:36:59.478Z,5.78
2022-10-19T07:39:27.498Z,3.97
2022-10-19T07:41:54.768Z,3.63
2022-10-19T07:44:28.510Z,2.60
2022-10-19T07:46:55.694Z,3.05
2022-10-19T07:49:29.393Z,2.75
2022-10-19T07:51:56.495Z,2.20
2022-10-19T07:54:31.534Z,2.42
2022-10-19T07:56:58.677Z,5.72
2022-10-19T07:59:25.924Z,3.72
2022-10-19T08:02:01.452Z,2.80
2022-10-19T08:04:55.968Z,3.28
2022-10-19T08:07:22.426Z,2.70
2022-10-19T08:09:54.097Z,2.03
2022-10-19T08:12:28.470Z,2.88
2022-10-19T08:14:55.583Z,2.22
2022-10-19T08:17:29.596Z,3.55
2022-10-19T08:19:56.873Z,2.30
2022-10-19T08:22:30.371Z,2.10
2022-10-19T08:25:18.312Z,2.40
2022-10-19T08:27:52.598Z,1.97
2022-10-19T08:30:19.907Z,2.42
2022-10-19T08:32:47.037Z,2.30
2022-10-19T08:35:20.540Z,2.17
2022-10-19T08:37:48.065Z,2.00
2022-10-19T08:40:28.406Z,1.80
2022-10-19T08:43:01.916Z,1.88
2022-10-19T08:45:44.423Z,1.50
2022-10-19T08:48:17.582Z,1.92
2022-10-19T08:50:52.554Z,1.70
2022-10-19T08:53:19.951Z,1.83
2022-10-19T08:56:04.474Z,2.03
2022-10-19T08:58:50.813Z,1.25
2022-10-19T09:04:37.679Z,1.85
2022-10-19T09:07:30.341Z,1.40
2022-10-19T09:10:02.493Z,1.13
2022-10-19T09:12:52.869Z,1.40
2022-10-19T09:15:33.449Z,1.30
2022-10-19T09:18:08.329Z,1.80
2022-10-19T09:20:38.945Z,1.75
2022-10-19T09:23:25.318Z,1.10
2022-10-19T09:26:12.425Z,1.73
2022-10-19T09:28:46.341Z,1.33
2022-10-19T09:31:15.591Z,1.10
2022-10-19T09:33:50.356Z,1.00
2022-10-19T09:36:22.800Z,1.33
2022-10-19T09:38:57.511Z,1.15
2022-10-19T09:41:25.287Z,0.93
2022-10-19T09:43:54.432Z,1.25
2022-10-19T09:46:48.599Z,1.30
2022-10-19T09:49:15.908Z,0.98
2022-10-19T09:51:58.449Z,1.15
2022-10-19T09:54:38.426Z,1.20
2022-10-19T09:57:12.472Z,1.45
2022-10-19T09:59:39.751Z,1.20
2022-10-19T10:02:13.674Z,1.17
2022-10-19T10:04:40.831Z,0.95
2022-10-19T10:07:21.651Z,1.13
2022-10-19T10:09:48.850Z,0.73
2022-10-19T10:12:36.624Z,1.20
2022-10-19T10:15:18.349Z,0.85
2022-10-19T10:17:46.881Z,1.00
2022-10-19T10:20:39.357Z,1.45
2022-10-19T10:23:07.183Z,0.93
2022-10-19T10:26:00.361Z,0.80
2022-10-19T10:28:38.269Z,0.80
2022-10-19T10:31:13.400Z,0.70
2022-10-19T10:33:45.623Z,0.88
2022-10-19T10:36:13.442Z,0.70
2022-10-19T10:38:54.517Z,0.60
2022-10-19T10:41:35.356Z,0.65
2022-10-19T10:44:04.996Z,0.70
2022-10-19T10:46:42.393Z,0.60
2022-10-19T10:49:17.737Z,0.50
2022-10-19T10:51:53.152Z,0.30
2022-10-19T10:54:25.101Z,0.98
2022-10-19T10:57:06.611Z,0.80
2022-10-19T10:59:52.899Z,0.80
2022-10-19T11:05:01.679Z,0.80
2022-10-19T11:07:40.364Z,0.55
2022-10-19T11:10:21.478Z,1.15
2022-10-19T11:12:58.368Z,1.05
2022-10-19T11:15:35.522Z,0.88
2022-10-19T11:18:28.387Z,0.65
2022-10-19T11:21:16.220Z,0.85
2022-10-19T11:24:08.383Z,0.95
2022-10-19T11:27:03.511Z,0.50
2022-10-19T11:29:52.378Z,0.57
2022-10-19T11:34:56.365Z,0.40
2022-10-19T11:37:26.442Z,0.52
2022-10-19T11:40:07.506Z,0.98
2022-10-19T11:42:48.334Z,0.40
2022-10-19T11:45:25.509Z,0.65
2022-10-19T11:48:13.832Z,0.40
2022-10-19T11:50:53.828Z,0.52
2022-10-19T11:53:45.694Z,0.63
2022-10-19T11:56:34.825Z,0.40
2022-10-19T11:59:15.877Z,0.40
2022-10-19T12:01:57.608Z,0.35
2022-10-19T12:04:42.563Z,0.85
2022-10-19T12:07:24.503Z,0.40
2022-10-19T12:10:04.076Z,0.30
2022-10-19T12:12:43.401Z,0.40
2022-10-19T12:15:18.909Z,0.65
2022-10-19T12:17:54.432Z,0.50
2022-10-19T12:20:28.247Z,0.40
2022-10-19T12:23:02.433Z,0.60
2022-10-19T12:25:50.461Z,0.75
2022-10-19T12:28:34.412Z,0.50
2022-10-19T12:31:02.358Z,0.40
2022-10-19T12:33:49.430Z,0.47
2022-10-19T12:36:22.621Z,0.40
2022-10-19T12:39:02.402Z,0.40
2022-10-19T12:41:44.593Z,0.47
2022-10-19T12:47:25.487Z,0.68
2022-10-19T12:50:02.406Z,0.55
2022-10-19T12:52:52.471Z,0.90
2022-10-19T12:55:26.458Z,1.00
2022-10-19T12:57:58.195Z,0.50
2022-10-19T13:00:33.611Z,0.75
2022-10-19T13:03:23.955Z,0.90
2022-10-19T13:06:03.419Z,0.77
2022-10-19T13:08:38.576Z,1.02
2022-10-19T13:11:22.560Z,0.50
2022-10-19T13:13:59.269Z,0.47
2022-10-19T13:16:45.937Z,0.70
2022-10-19T13:19:13.425Z,0.80
2022-10-19T13:22:10.398Z,0.55
2022-10-19T13:24:44.461Z,0.52
2022-10-19T13:27:24.892Z,0.40
2022-10-19T13:29:58.576Z,0.40
2022-10-19T13:32:31.555Z,0.88
2022-10-19T13:35:23.597Z,0.60
2022-10-19T13:38:09.219Z,0.70
2022-10-19T13:40:48.623Z,0.50
2022-10-19T13:43:21.635Z,0.77
2022-10-19T13:46:10.536Z,0.73
2022-10-19T13:51:26.854Z,0.80
2022-10-19T13:54:04.866Z,0.50
2022-10-19T13:56:41.663Z,0.40
2022-10-19T13:59:35.135Z,0.52
2022-10-19T14:02:15.746Z,0.57
2022-10-19T14:05:15.361Z,0.40
2022-10-19T14:07:54.723Z,0.30
2022-10-19T14:10:28.281Z,0.57
2022-10-19T14:13:10.707Z,0.50
2022-10-19T14:15:37.889Z,1.02
2022-10-19T14:18:06.069Z,0.45
2022-10-19T14:20:41.575Z,1.02
2022-10-19T14:23:24.986Z,0.80
2022-10-19T14:26:09.893Z,0.70
2022-10-19T14:28:43.537Z,1.45
2022-10-19T14:31:18.655Z,0.90
2022-10-19T14:33:53.478Z,1.30
2022-10-19T14:36:29.396Z,1.00
2022-10-19T14:38:57.643Z,1.20
2022-10-19T14:41:52.726Z,1.20
2022-10-19T14:44:38.624Z,1.30
2022-10-19T14:47:25.059Z,1.08
2022-10-19T14:49:52.352Z,0.95
2022-10-19T14:52:51.643Z,1.30
2022-10-19T14:55:20.736Z,1.05
2022-10-19T14:57:49.994Z,1.48
2022-10-19T15:00:35.517Z,1.20
2022-10-19T15:03:05.166Z,1.00
2022-10-19T15:05:41.712Z,1.00
2022-10-19T15:08:16.178Z,0.75
2022-10-19T15:10:52.576Z,0.70
2022-10-19T15:13:24.420Z,1.02
2022-10-19T15:16:02.680Z,0.70
2022-10-19T15:21:25.572Z,0.95
2022-10-19T15:23:53.285Z,0.80
2022-10-19T15:26:43.639Z,0.77
2022-10-19T15:29:19.279Z,0.90
2022-10-19T15:31:53.709Z,1.25
2022-10-19T15:34:26.053Z,0.75
2022-10-19T15:37:08.396Z,0.95
2022-10-19T15:39:42.141Z,0.93
2022-10-19T15:42:40.768Z,0.88
2022-10-19T15:45:26.617Z,0.98
2022-10-19T15:48:19.579Z,0.80
2022-10-19T15:50:48.424Z,1.10
2022-10-19T15:53:16.031Z,0.80
2022-10-19T15:58:17.910Z,1.05
2022-10-19T16:00:52.739Z,1.20
2022-10-19T16:03:20.013Z,1.08
2022-10-19T16:05:47.393Z,1.05
2022-10-19T16:08:21.524Z,1.17
2022-10-19T16:10:48.699Z,1.08
2022-10-19T16:13:22.757Z,1.65
2022-10-19T16:15:56.805Z,1.23
2022-10-19T16:18:43.709Z,1.02
2022-10-19T16:21:10.891Z,1.30
2022-10-19T23:16:54.678Z,2.33
2022-10-19T23:19:28.555Z,2.45
2022-10-19T23:21:55.824Z,2.38
2022-10-19T23:24:29.564Z,2.20
2022-10-19T23:26:56.959Z,3.00
2022-10-19T23:29:24.145Z,2.63
2022-10-19T23:31:57.731Z,2.50
2022-10-19T23:34:25.030Z,2.58
2022-10-19T23:36:58.824Z,2.47
2022-10-19T23:39:25.984Z,2.72
2022-10-19T23:41:53.139Z,2.78
2022-10-19T23:44:26.665Z,2.42
2022-10-19T23:46:53.754Z,3.17
2022-10-19T23:49:27.672Z,2.90
2022-10-19T23:51:54.778Z,2.60
2022-10-19T23:54:22.096Z,2.80
2022-10-19T23:56:55.682Z,2.08
2022-10-19T23:59:22.789Z,2.25
